createdAt,value
2022-08-25T00:00:15.976Z,100.00
2022-08-25T00:02:45.554Z,100.00
2022-08-25T00:05:22.506Z,100.00
2022-08-25T00:07:49.066Z,100.00
2022-08-25T00:10:15.557Z,100.00
2022-08-25T00:12:42.902Z,100.00
2022-08-25T00:15:09.848Z,100.00
2022-08-25T00:17:36.349Z,100.00
2022-08-25T00:20:05.131Z,100.00
2022-08-25T00:22:31.813Z,100.00
2022-08-25T00:24:58.347Z,100.00
2022-08-25T00:27:25.924Z,100.00
2022-08-25T00:29:52.468Z,100.00
2022-08-25T00:32:19.144Z,100.00
2022-08-25T00:34:46.093Z,100.00
2022-08-25T00:37:12.749Z,100.00
2022-08-25T00:39:39.886Z,100.00
2022-08-25T00:42:11.847Z,100.00
2022-08-25T00:44:44.116Z,100.00
2022-08-25T00:47:10.945Z,100.00
2022-08-25T00:49:42.452Z,100.00
2022-08-25T00:52:12.128Z,100.00
2022-08-25T00:54:54.715Z,100.00
2022-08-25T00:57:34.131Z,100.00
2022-08-25T01:00:05.061Z,100.00
2022-08-25T01:02:31.680Z,100.00
2022-08-25T01:04:58.830Z,100.00
2022-08-25T01:07:25.398Z,100.00
2022-08-25T01:09:52.754Z,100.00
2022-08-25T01:12:19.576Z,100.00
2022-08-25T01:14:47.528Z,100.00
2022-08-25T01:17:14.411Z,100.00
2022-08-25T01:19:41.064Z,100.00
2022-08-25T01:22:08.179Z,100.00
2022-08-25T01:24:47.840Z,100.00
2022-08-25T01:27:14.423Z,100.00
2022-08-25T01:29:41.078Z,100.00
2022-08-25T01:32:09.839Z,100.00
2022-08-25T01:34:38.826Z,100.00
2022-08-25T01:37:06.179Z,100.00
2022-08-25T01:39:34.038Z,100.00
2022-08-25T01:42:12.092Z,100.00
2022-08-25T01:44:41.983Z,100.00
2022-08-25T01:47:08.594Z,100.00
2022-08-25T01:49:35.169Z,100.00
2022-08-25T01:52:33.655Z,100.00
2022-08-25T01:55:00.282Z,100.00
2022-08-25T01:57:30.059Z,100.00
2022-08-25T01:59:56.601Z,100.00
2022-08-25T02:02:23.421Z,100.00
2022-08-25T02:04:52.882Z,100.00
2022-08-25T02:07:20.063Z,100.00
2022-08-25T02:09:47.335Z,100.00
2022-08-25T02:12:13.999Z,100.00
2022-08-25T02:14:40.783Z,100.00
2022-08-25T02:17:08.325Z,100.00
2022-08-25T02:19:34.981Z,100.00
2022-08-25T02:22:02.757Z,100.00
2022-08-25T02:24:31.461Z,100.00
2022-08-25T02:26:58.344Z,100.00
2022-08-25T02:29:25.355Z,100.00
2022-08-25T02:31:51.966Z,100.00
2022-08-25T02:34:18.922Z,100.00
2022-08-25T02:36:45.637Z,100.00
2022-08-25T02:39:12.375Z,100.00
2022-08-25T02:41:39.131Z,100.00
2022-08-25T02:46:32.728Z,100.00
2022-08-25T02:48:59.569Z,100.00
2022-08-25T02:51:30.002Z,100.00
2022-08-25T02:53:57.924Z,100.00
2022-08-25T02:56:25.796Z,100.00
2022-08-25T02:58:52.664Z,100.00
2022-08-25T03:01:19.522Z,100.00
2022-08-25T03:03:46.976Z,100.00
2022-08-25T03:06:15.845Z,100.00
2022-08-25T03:08:43.125Z,100.00
2022-08-25T03:11:10.427Z,100.00
2022-08-25T03:13:37.344Z,100.00
2022-08-25T03:16:09.814Z,100.00
2022-08-25T03:18:39.837Z,100.00
2022-08-25T03:21:07.447Z,100.00
2022-08-25T03:23:34.137Z,100.00
2022-08-25T03:26:20.912Z,100.00
2022-08-25T03:28:47.532Z,100.00
2022-08-25T03:31:14.047Z,100.00
2022-08-25T03:33:40.646Z,100.00
2022-08-25T03:36:08.607Z,100.00
2022-08-25T03:38:37.296Z,100.00
2022-08-25T03:41:13.837Z,100.00
2022-08-25T03:43:40.915Z,100.00
2022-08-25T03:46:07.639Z,100.00
2022-08-25T03:48:34.499Z,100.00
2022-08-25T03:51:01.035Z,100.00
2022-08-25T03:53:27.524Z,100.00
2022-08-25T03:55:54.208Z,100.00
2022-08-25T03:58:20.713Z,100.00
2022-08-25T04:00:47.270Z,100.00
2022-08-25T04:03:13.838Z,100.00
2022-08-25T04:05:41.039Z,100.00
2022-08-25T04:08:08.106Z,100.00
2022-08-25T04:10:35.151Z,100.00
2022-08-25T04:13:01.851Z,100.00
2022-08-25T04:15:30.243Z,100.00
2022-08-25T04:17:58.886Z,100.00
2022-08-25T04:20:25.647Z,100.00
2022-08-25T04:22:52.210Z,100.00
2022-08-25T04:25:18.715Z,100.00
2022-08-25T04:27:45.203Z,100.00
2022-08-25T04:30:12.400Z,100.00
2022-08-25T04:32:39.036Z,100.00
2022-08-25T04:35:05.989Z,100.00
2022-08-25T04:37:33.434Z,100.00
2022-08-25T04:40:00.157Z,100.00
2022-08-25T04:42:27.026Z,100.00
2022-08-25T04:44:54.410Z,100.00
2022-08-25T04:47:20.925Z,100.00
2022-08-25T04:49:47.832Z,100.00
2022-08-25T04:52:14.833Z,100.00
2022-08-25T04:54:42.192Z,100.00
2022-08-25T04:57:08.730Z,100.00
2022-08-25T04:59:35.285Z,100.00
2022-08-25T05:02:03.227Z,100.00
2022-08-25T05:04:31.093Z,100.00
2022-08-25T05:06:58.011Z,100.00
2022-08-25T05:09:25.491Z,100.00
2022-08-25T05:11:52.879Z,100.00
2022-08-25T05:14:22.643Z,100.00
2022-08-25T05:16:53.038Z,100.00
2022-08-25T05:19:19.652Z,100.00
2022-08-25T05:21:46.345Z,100.00
2022-08-25T05:24:12.922Z,100.00
2022-08-25T05:26:39.755Z,100.00
2022-08-25T05:29:06.888Z,100.00
2022-08-25T05:31:36.339Z,100.00
2022-08-25T05:34:06.805Z,100.00
2022-08-25T05:36:34.170Z,100.00
2022-08-25T05:39:01.141Z,100.00
2022-08-25T05:41:29.498Z,100.00
2022-08-25T05:43:56.706Z,100.00
2022-08-25T05:46:23.771Z,100.00
2022-08-25T05:48:50.569Z,100.00
2022-08-25T05:51:17.762Z,100.00
2022-08-25T05:53:46.769Z,100.00
2022-08-25T05:56:16.644Z,100.00
2022-08-25T05:58:43.573Z,100.00
2022-08-25T06:01:29.638Z,100.00
2022-08-25T06:03:56.289Z,100.00
2022-08-25T06:06:24.329Z,100.00
2022-08-25T06:08:51.631Z,100.00
2022-08-25T06:11:18.487Z,100.00
2022-08-25T06:13:45.594Z,100.00
2022-08-25T06:16:12.328Z,100.00
2022-08-25T06:18:38.989Z,100.00
2022-08-25T06:21:14.151Z,100.00
2022-08-25T06:23:41.001Z,100.00
2022-08-25T06:26:10.885Z,100.00
2022-08-25T06:28:41.039Z,100.00
2022-08-25T06:31:07.580Z,100.00
2022-08-25T06:33:34.298Z,100.00
2022-08-25T06:36:01.175Z,100.00
2022-08-25T06:38:27.835Z,100.00
2022-08-25T06:40:54.443Z,100.00
2022-08-25T06:43:21.502Z,100.00
2022-08-25T06:45:48.649Z,100.00
2022-08-25T06:48:15.554Z,100.00
2022-08-25T06:50:42.853Z,100.00
2022-08-25T06:53:09.472Z,100.00
2022-08-25T06:55:36.866Z,100.00
2022-08-25T06:58:04.861Z,100.00
2022-08-25T07:00:32.586Z,100.00
2022-08-25T07:03:01.181Z,100.00
2022-08-25T07:05:42.593Z,100.00
2022-08-25T07:08:11.789Z,100.00
2022-08-25T07:10:38.818Z,100.00
2022-08-25T07:13:05.358Z,100.00
2022-08-25T07:15:31.921Z,100.00
2022-08-25T07:17:58.457Z,100.00
2022-08-25T07:22:57.886Z,100.00
2022-08-25T07:25:24.546Z,100.00
2022-08-25T07:27:52.367Z,100.00
2022-08-25T07:30:20.537Z,100.00
2022-08-25T07:32:47.088Z,100.00
2022-08-25T07:35:24.226Z,100.00
2022-08-25T07:37:58.219Z,100.00
2022-08-25T07:40:34.020Z,100.00
2022-08-25T07:43:05.358Z,100.00
2022-08-25T07:45:35.351Z,100.00
2022-08-25T07:48:05.594Z,100.00
2022-08-25T07:50:32.865Z,100.00
2022-08-25T07:52:59.812Z,100.00
2022-08-25T07:55:28.156Z,100.00
2022-08-25T07:58:12.303Z,100.00
2022-08-25T08:00:39.514Z,100.00
2022-08-25T08:03:12.931Z,100.00
2022-08-25T08:05:50.719Z,100.00
2022-08-25T08:08:17.256Z,100.00
2022-08-25T08:11:04.036Z,100.00
2022-08-25T08:13:34.835Z,100.00
2022-08-25T08:16:09.531Z,100.00
2022-08-25T08:18:36.186Z,100.00
2022-08-25T08:21:02.699Z,100.00
2022-08-25T08:23:30.576Z,100.00
2022-08-25T08:25:57.193Z,100.00
2022-08-25T08:28:27.792Z,95.85
2022-08-25T08:30:54.391Z,90.88
2022-08-25T08:33:23.513Z,89.59
2022-08-25T08:36:06.230Z,85.65
2022-08-25T08:38:34.629Z,86.26
2022-08-25T08:42:09.676Z,85.68
2022-08-25T08:44:46.633Z,87.41
2022-08-25T08:47:20.460Z,87.37
2022-08-25T08:50:23.912Z,87.89
2022-08-25T08:52:56.111Z,86.12
2022-08-25T08:55:31.342Z,85.04
2022-08-25T08:58:00.226Z,87.89
2022-08-25T09:00:28.583Z,87.66
2022-08-25T09:03:12.445Z,85.96
2022-08-25T09:05:48.461Z,87.56
2022-08-25T09:08:20.272Z,88.52
2022-08-25T09:11:10.466Z,86.77
2022-08-25T09:13:55.328Z,84.71
2022-08-25T09:16:51.028Z,81.59
2022-08-25T09:19:53.192Z,76.60
2022-08-25T09:22:35.701Z,64.54
2022-08-25T09:25:34.598Z,60.03
2022-08-25T09:28:24.052Z,54.79
2022-08-25T09:30:56.669Z,50.54
2022-08-25T09:33:25.257Z,51.14
2022-08-25T09:35:53.609Z,50.36
2022-08-25T09:38:20.764Z,47.15
2022-08-25T09:40:56.085Z,46.39
2022-08-25T09:43:40.204Z,46.35
2022-08-25T09:46:12.950Z,44.25
2022-08-25T09:48:56.928Z,44.13
2022-08-25T09:51:28.637Z,44.33
2022-08-25T09:54:13.518Z,43.90
2022-08-25T09:56:52.653Z,41.95
2022-08-25T09:59:30.807Z,41.60
2022-08-25T10:02:26.002Z,40.83
2022-08-25T10:04:54.095Z,40.05
2022-08-25T10:07:38.449Z,39.70
2022-08-25T10:10:27.563Z,40.39
2022-08-25T10:13:01.172Z,39.84
2022-08-25T10:15:34.635Z,39.25
2022-08-25T10:18:25.630Z,40.10
2022-08-25T10:21:14.721Z,37.93
2022-08-25T10:23:55.865Z,37.20
2022-08-25T10:26:34.896Z,36.98
2022-08-25T10:29:22.279Z,37.07
2022-08-25T10:31:58.377Z,35.63
2022-08-25T10:34:46.241Z,34.73
2022-08-25T10:37:40.098Z,31.78
2022-08-25T10:40:25.588Z,31.08
2022-08-25T10:43:08.447Z,30.81
2022-08-25T10:45:49.607Z,32.69
2022-08-25T10:48:23.375Z,32.13
2022-08-25T10:50:58.455Z,34.24
2022-08-25T10:53:47.666Z,34.31
2022-08-25T10:56:37.073Z,32.97
2022-08-25T10:59:25.670Z,32.20
2022-08-25T11:02:08.261Z,33.57
2022-08-25T11:05:11.484Z,36.58
2022-08-25T11:07:41.928Z,36.16
2022-08-25T11:10:19.021Z,38.12
2022-08-25T11:12:50.790Z,38.26
2022-08-25T11:15:28.457Z,38.88
2022-08-25T11:18:02.685Z,40.38
2022-08-25T11:20:38.123Z,40.01
2022-08-25T11:23:15.347Z,40.00
2022-08-25T11:25:44.661Z,39.35
2022-08-25T11:28:33.586Z,38.83
2022-08-25T11:31:02.957Z,37.90
2022-08-25T11:33:32.043Z,37.94
2022-08-25T11:36:31.989Z,36.85
2022-08-25T11:39:04.428Z,36.63
2022-08-25T11:42:02.433Z,34.75
2022-08-25T11:44:58.109Z,33.19
2022-08-25T11:47:39.871Z,31.11
2022-08-25T11:50:30.226Z,31.16
2022-08-25T11:53:26.737Z,31.50
2022-08-25T11:55:58.813Z,30.86
2022-08-25T11:58:28.486Z,30.96
2022-08-25T12:00:59.670Z,29.53
2022-08-25T12:03:32.257Z,30.33
2022-08-25T12:06:23.406Z,29.20
2022-08-25T12:09:13.250Z,30.07
2022-08-25T12:12:05.608Z,29.62
2022-08-25T12:14:32.051Z,29.01
2022-08-25T12:17:06.333Z,28.83
2022-08-25T12:19:36.646Z,29.04
2022-08-25T12:22:04.632Z,27.87
2022-08-25T12:24:47.743Z,27.78
2022-08-25T12:27:40.075Z,28.47
2022-08-25T12:30:27.585Z,28.52
2022-08-25T12:33:03.237Z,28.05
2022-08-25T12:35:32.660Z,27.42
2022-08-25T12:38:06.094Z,28.56
2022-08-25T12:40:39.908Z,29.54
2022-08-25T12:43:14.157Z,30.01
2022-08-25T12:45:48.333Z,29.13
2022-08-25T12:48:27.219Z,29.22
2022-08-25T12:50:59.392Z,30.38
2022-08-25T12:53:25.819Z,29.72
2022-08-25T12:56:00.484Z,28.89
2022-08-25T12:58:58.841Z,28.36
2022-08-25T13:01:47.572Z,27.64
2022-08-25T13:04:50.124Z,28.56
2022-08-25T13:07:46.526Z,27.71
2022-08-25T13:10:54.479Z,25.96
2022-08-25T13:13:39.507Z,28.65
2022-08-25T13:16:09.486Z,30.08
2022-08-25T13:18:38.281Z,30.44
2022-08-25T13:21:15.333Z,30.95
2022-08-25T13:23:44.835Z,32.64
2022-08-25T13:26:22.601Z,33.83
2022-08-25T13:28:57.926Z,34.77
2022-08-25T13:31:29.084Z,33.97
2022-08-25T13:33:58.658Z,32.34
2022-08-25T13:36:51.090Z,30.91
2022-08-25T13:39:45.561Z,29.08
2022-08-25T13:42:14.960Z,28.23
2022-08-25T13:44:41.824Z,27.49
2022-08-25T13:47:43.866Z,29.55
2022-08-25T13:50:20.495Z,30.39
2022-08-25T13:53:02.094Z,30.63
2022-08-25T13:55:50.488Z,32.96
2022-08-25T13:58:24.214Z,36.24
2022-08-25T14:01:02.762Z,36.66
2022-08-25T14:03:49.968Z,38.08
2022-08-25T14:06:16.424Z,38.16
2022-08-25T14:08:45.563Z,39.15
2022-08-25T14:11:30.708Z,38.27
2022-08-25T14:14:01.515Z,36.84
2022-08-25T14:16:33.146Z,37.45
2022-08-25T14:19:01.908Z,39.57
2022-08-25T14:21:30.760Z,41.33
2022-08-25T14:23:57.906Z,42.28
2022-08-25T14:26:26.988Z,44.11
2022-08-25T14:28:53.762Z,46.96
2022-08-25T14:31:20.279Z,49.34
2022-08-25T14:33:56.050Z,49.30
2022-08-25T14:36:22.753Z,49.22
2022-08-25T14:38:54.794Z,52.49
2022-08-25T14:41:23.872Z,61.21
2022-08-25T14:43:50.618Z,69.82
2022-08-25T14:46:20.339Z,77.67
2022-08-25T14:48:52.120Z,83.35
2022-08-25T14:51:18.758Z,88.09
2022-08-25T14:53:47.516Z,88.23
2022-08-25T14:56:14.369Z,87.75
2022-08-25T14:58:50.985Z,90.99
2022-08-25T15:01:28.883Z,89.56
2022-08-25T15:04:08.880Z,84.00
2022-08-25T15:06:36.703Z,84.27
2022-08-25T15:09:08.537Z,84.69
2022-08-25T15:11:36.648Z,86.37
2022-08-25T15:14:10.795Z,85.92
2022-08-25T15:16:40.302Z,89.49
2022-08-25T15:19:11.538Z,94.44
2022-08-25T15:21:38.594Z,100.00
2022-08-25T15:24:07.064Z,100.00
2022-08-25T15:26:39.961Z,100.00
2022-08-25T15:29:06.929Z,100.00
2022-08-25T15:31:35.490Z,100.00
2022-08-25T15:34:02.243Z,100.00
2022-08-25T15:36:29.035Z,100.00
2022-08-25T15:38:55.557Z,100.00
2022-08-25T15:41:23.150Z,100.00
2022-08-25T15:43:54.583Z,100.00
2022-08-25T15:46:24.472Z,100.00
2022-08-25T15:48:51.142Z,100.00
2022-08-25T15:51:18.928Z,100.00
2022-08-25T15:53:46.066Z,100.00
2022-08-25T15:56:26.772Z,100.00
2022-08-25T15:58:55.459Z,100.00
2022-08-25T16:01:26.337Z,100.00
2022-08-25T16:03:53.435Z,100.00
2022-08-25T16:06:20.353Z,100.00
2022-08-25T16:08:48.244Z,100.00
2022-08-25T16:11:19.370Z,100.00
2022-08-25T16:13:47.654Z,100.00
2022-08-25T16:16:16.171Z,100.00
2022-08-25T16:18:43.868Z,100.00
2022-08-25T16:21:12.401Z,100.00
2022-08-25T16:23:40.238Z,100.00
2022-08-25T16:26:09.458Z,100.00
2022-08-25T16:28:37.678Z,100.00
2022-08-25T16:31:05.079Z,100.00
2022-08-25T16:33:32.227Z,100.00
2022-08-25T16:36:10.963Z,100.00
2022-08-25T16:38:38.591Z,100.00
2022-08-25T16:41:09.890Z,100.00
2022-08-25T16:43:37.179Z,100.00
2022-08-25T16:46:07.233Z,100.00
2022-08-25T16:48:34.548Z,100.00
2022-08-25T16:51:12.260Z,100.00
2022-08-25T16:53:57.904Z,100.00
2022-08-25T16:56:27.987Z,100.00
2022-08-25T16:58:56.007Z,100.00
2022-08-25T17:01:25.193Z,100.00
2022-08-25T17:03:53.222Z,100.00
2022-08-25T17:06:20.542Z,100.00
2022-08-25T17:08:50.748Z,100.00
2022-08-25T17:11:19.292Z,100.00
2022-08-25T17:13:49.732Z,100.00
2022-08-25T17:16:17.187Z,100.00
2022-08-25T17:18:47.629Z,100.00
2022-08-25T17:21:24.098Z,100.00
2022-08-25T17:23:51.501Z,100.00
2022-08-25T17:26:18.286Z,100.00
2022-08-25T17:28:45.956Z,100.00
2022-08-25T17:31:14.495Z,100.00
2022-08-25T17:33:41.218Z,100.00
2022-08-25T17:36:08.510Z,100.00
2022-08-25T17:38:36.123Z,100.00
2022-08-25T17:41:06.863Z,100.00
2022-08-25T17:43:37.504Z,100.00
2022-08-25T17:46:04.759Z,100.00
2022-08-25T17:48:33.074Z,100.00
2022-08-25T17:51:00.309Z,100.00
2022-08-25T17:53:27.814Z,100.00
2022-08-25T17:56:00.450Z,100.00
2022-08-25T17:58:28.241Z,100.00
2022-08-25T18:00:55.300Z,100.00
2022-08-25T18:03:21.964Z,100.00
2022-08-25T18:05:49.838Z,100.00
2022-08-25T18:08:18.038Z,100.00
2022-08-25T18:10:47.049Z,100.00
2022-08-25T18:13:14.115Z,100.00
2022-08-25T18:15:42.507Z,100.00
2022-08-25T18:18:09.792Z,100.00
2022-08-25T18:20:39.302Z,100.00
2022-08-25T18:23:09.797Z,100.00
2022-08-25T18:25:36.934Z,100.00
2022-08-25T18:28:09.068Z,100.00
2022-08-25T18:30:36.342Z,100.00
2022-08-25T18:33:02.904Z,100.00
2022-08-25T18:35:29.549Z,100.00
2022-08-25T18:38:14.468Z,100.00
2022-08-25T18:40:42.079Z,100.00
2022-08-25T18:43:14.453Z,100.00
2022-08-25T18:45:44.558Z,100.00
2022-08-25T18:48:11.446Z,100.00
2022-08-25T18:50:40.423Z,100.00
2022-08-25T18:53:08.533Z,100.00
2022-08-25T18:55:36.176Z,100.00
2022-08-25T18:58:03.601Z,100.00
2022-08-25T19:00:31.017Z,100.00
2022-08-25T19:02:59.908Z,100.00
2022-08-25T19:05:32.648Z,100.00
2022-08-25T19:08:06.756Z,100.00
2022-08-25T19:10:34.574Z,100.00
2022-08-25T19:13:07.871Z,100.00
2022-08-25T19:15:36.402Z,100.00
2022-08-25T19:18:06.848Z,100.00
2022-08-25T19:20:36.867Z,100.00
2022-08-25T19:23:03.479Z,100.00
2022-08-25T19:25:34.812Z,100.00
2022-08-25T19:28:05.602Z,100.00
2022-08-25T19:30:34.271Z,100.00
2022-08-25T19:33:01.151Z,100.00
2022-08-25T19:35:44.071Z,100.00
2022-08-25T19:38:33.819Z,100.00
2022-08-25T19:41:00.692Z,100.00
2022-08-25T19:43:27.511Z,100.00
2022-08-25T19:45:54.129Z,100.00
2022-08-25T19:48:20.833Z,100.00
2022-08-25T19:50:48.029Z,100.00
2022-08-25T19:53:22.421Z,100.00
2022-08-25T19:55:49.197Z,100.00
2022-08-25T19:58:16.080Z,100.00
2022-08-25T20:00:47.153Z,100.00
2022-08-25T20:03:17.527Z,100.00
2022-08-25T20:05:44.093Z,100.00
2022-08-25T20:08:10.609Z,100.00
2022-08-25T20:10:41.864Z,100.00
2022-08-25T20:13:08.920Z,100.00
2022-08-25T20:15:37.269Z,100.00
2022-08-25T20:18:06.124Z,100.00
2022-08-25T20:20:34.614Z,100.00
2022-08-25T20:23:21.002Z,100.00
2022-08-25T20:25:50.225Z,100.00
2022-08-25T20:28:18.952Z,100.00
2022-08-25T20:30:45.988Z,100.00
2022-08-25T20:33:13.259Z,100.00
2022-08-25T20:35:47.969Z,100.00
2022-08-25T20:38:14.590Z,100.00
2022-08-25T20:40:41.942Z,100.00
2022-08-25T20:43:10.528Z,100.00
2022-08-25T20:45:39.578Z,100.00
2022-08-25T20:48:06.284Z,100.00
2022-08-25T20:50:33.718Z,100.00
2022-08-25T20:53:00.861Z,100.00
2022-08-25T20:55:27.875Z,100.00
2022-08-25T20:57:56.164Z,100.00
2022-08-25T21:00:24.886Z,100.00
2022-08-25T21:02:52.691Z,100.00
2022-08-25T21:05:19.647Z,100.00
2022-08-25T21:07:46.453Z,100.00
2022-08-25T21:10:15.976Z,100.00
2022-08-25T21:12:43.147Z,100.00
2022-08-25T21:15:10.593Z,100.00
2022-08-25T21:17:37.479Z,100.00
2022-08-25T21:20:08.606Z,100.00
2022-08-25T21:22:36.958Z,100.00
2022-08-25T21:25:04.750Z,100.00
2022-08-25T21:27:31.311Z,100.00
2022-08-25T21:29:57.999Z,100.00
2022-08-25T21:32:24.689Z,100.00
2022-08-25T21:34:53.053Z,100.00
2022-08-25T21:37:20.224Z,100.00
2022-08-25T21:39:46.817Z,100.00
2022-08-25T21:42:13.492Z,100.00
2022-08-25T21:44:40.547Z,100.00
2022-08-25T21:47:07.102Z,100.00
2022-08-25T21:49:37.299Z,100.00
2022-08-25T21:52:04.618Z,100.00
2022-08-25T21:54:31.639Z,100.00
2022-08-25T21:57:00.927Z,100.00
2022-08-25T21:59:29.878Z,100.00
2022-08-25T22:02:00.357Z,100.00
2022-08-25T22:04:27.963Z,100.00
2022-08-25T22:06:54.871Z,100.00
2022-08-25T22:09:24.909Z,100.00
2022-08-25T22:11:54.625Z,100.00
2022-08-25T22:14:21.999Z,100.00
2022-08-25T22:16:48.601Z,100.00
2022-08-25T22:19:15.471Z,100.00
2022-08-25T22:21:43.312Z,100.00
2022-08-25T22:24:10.749Z,100.00
2022-08-25T22:26:38.223Z,100.00
2022-08-25T22:29:05.301Z,100.00
2022-08-25T22:31:33.874Z,100.00
2022-08-25T22:34:01.031Z,100.00
2022-08-25T22:36:35.121Z,100.00
2022-08-25T22:39:03.079Z,100.00
2022-08-25T22:41:31.475Z,100.00
2022-08-25T22:44:00.012Z,100.00
2022-08-25T22:46:32.333Z,100.00
2022-08-25T22:49:00.051Z,100.00
2022-08-25T22:51:31.460Z,100.00
2022-08-25T22:54:02.012Z,100.00
2022-08-25T22:56:34.941Z,100.00
2022-08-25T22:59:08.787Z,100.00
2022-08-25T23:01:36.259Z,100.00
2022-08-25T23:04:04.951Z,100.00
2022-08-25T23:06:31.712Z,100.00
2022-08-25T23:08:58.752Z,100.00
2022-08-25T23:11:25.700Z,100.00
2022-08-25T23:13:56.837Z,100.00
2022-08-25T23:16:24.104Z,100.00
2022-08-25T23:18:51.486Z,100.00
2022-08-25T23:21:37.952Z,100.00
2022-08-25T23:24:10.791Z,100.00
2022-08-25T23:26:42.535Z,100.00
2022-08-25T23:29:18.603Z,100.00
2022-08-25T23:31:46.893Z,100.00
2022-08-25T23:34:15.399Z,100.00
2022-08-25T23:36:43.269Z,100.00
2022-08-25T23:39:11.049Z,100.00
2022-08-25T23:41:37.603Z,100.00
2022-08-25T23:44:05.520Z,100.00
2022-08-25T23:46:35.086Z,100.00
2022-08-25T23:49:02.592Z,100.00
2022-08-25T23:51:37.301Z,100.00
2022-08-25T23:54:07.067Z,100.00
2022-08-25T23:56:36.487Z,100.00
2022-08-25T23:59:04.115Z,100.00
